Main page
Satellite images 10-day forecastsClimateMarine weather Cyclones Lightning AirportsFAQ Newsletter About
Weather : Europe Africa North America South America Asia Australia-Oceania Others
Languages Contact

Nice, France

Nice Côte d'Azur Airport

latitude: 43-39N, longitude: 007-12E, elevation: 4 m


METAR: LFMN 290400Z 32006KT CAVOK 11/04 Q1013 NOSIG
TAF: LFMN 282300Z 2900/3006 34010KT CAVOK BECMG 2907/2909 14010KT BECMG 2918/2920 34010KT

Time: 06:20 (04:20 UTC)

Current weather observation

The report was made 20 minutes ago, at 04:00 UTC
Wind 6 kt from the Northwest
Temperature 11°C
Humidity 62%
Pressure 1013 hPa
Visibility 10 km or more
no clouds below 1500 m and no cumulonimbus

Change units

Forecast

The report was made 5 hours and 20 minutes ago, at 23:00 UTC
Forecast valid from 29 at 00 UTC to 30 at 06 UTC
Wind 10 kt from the North/Northwest
Visibility 10 km or more
no clouds below 1500 m and no cumulonimbus
Becoming
from 29 at 07 UTC to 29 at 09 UTC
Wind 10 kt from the Southeast
Becoming
from 29 at 18 UTC to 29 at 20 UTC
Wind 10 kt from the North/Northwest
The information on this site is subject to a disclaimer
Weather : Europe Africa North America South America Asia Australia-Oceania Others
Satellite images 10-day forecastsClimateMarine weather Cyclones Lightning AirportsFAQ Languages Contact Newsletter About